Time;durP1;ratioP1;P1;durP2;ratioP2;P2;SDS_P1;SDS_P2;PMS_P1;PMS_P2;Temp;Humidity;BMP_temperature;BMP_pressure;BME280_temperature;BME280_humidity;BME280_pressure;Samples;Min_cycle;Max_cycle;Signal;HPM_P1;HPM_P2
2022/02/05 00:01:32;;;;;;;;;;;;;;;-0.65;83.10;97156.50;5045221;28;19928;-62
2022/02/05 00:04:04;;;;;;;;;;;;;;;-0.63;83.75;97157.81;5043891;28;19951;-69
2022/02/05 00:06:35;;;;;;;;;;;;;;;-0.70;83.58;97176.44;5059806;28;19935;-63
2022/02/05 00:09:39;;;;;;;;;;;;;;;-0.80;83.60;97170.31;5045374;28;19933;-61
2022/02/05 00:12:24;;;;;;;;;;;;;;;-0.71;83.50;97174.00;5045510;28;20402;-61
2022/02/05 00:33:03;;;;;;;;;;;;;;;-0.82;83.32;97172.53;5045284;28;20007;-69
2022/02/05 00:42:07;;;;;;;;;;;;;;;-1.06;82.04;97174.50;5064339;28;19928;-70
2022/02/05 00:44:33;;;;;;;;;;;;;;;-1.14;82.05;97169.72;5064946;28;19928;-69
2022/02/05 00:47:00;;;;;;;;;;;;;;;-1.09;82.25;97172.38;5064781;28;19928;-69
2022/02/05 00:49:27;;;;;;;;;;;;;;;-1.19;82.82;97178.75;5063702;28;19935;-61
2022/02/05 00:52:05;;;;;;;;;;;;;;;-1.29;82.75;97183.50;5064655;28;20318;-68
2022/02/05 00:54:32;;;;;;;;;;;;;;;-1.21;83.88;97175.53;5062711;28;19932;-69
2022/02/05 00:59:31;;;;;;;;;;;;;;;-1.45;84.31;97174.75;5064183;28;20231;-69
2022/02/05 01:01:58;;;;;;;;;;;;;;;-1.34;84.77;97175.44;5064473;28;19929;-69
2022/02/05 01:04:24;;;;;;;;;;;;;;;-1.82;87.28;97161.09;5063365;28;19935;-61
2022/02/05 01:06:51;;;;;;;;;;;;;;;-1.65;87.50;97151.38;5064247;28;19935;-69
2022/02/05 01:09:22;;;;;;;;;;;;;;;-1.48;87.27;97152.78;5064490;28;19951;-69
2022/02/05 01:11:49;;;;;;;;;;;;;;;-1.42;86.91;97146.22;5064025;28;19939;-61
2022/02/05 01:14:20;;;;;;;;;;;;;;;-1.40;86.47;97152.13;5062643;28;20403;-62
2022/02/05 01:17:06;;;;;;;;;;;;;;;-1.44;86.37;97137.53;5063383;28;19951;-61
2022/02/05 01:22:26;;;;;;;;;;;;;;;-1.40;86.26;97122.25;5032892;28;19928;-61
2022/02/05 01:24:53;;;;;;;;;;;;;;;-1.38;85.44;97125.50;5062753;28;20316;-62
2022/02/05 01:30:29;;;;;;;;;;;;;;;-1.47;85.18;97119.09;5046823;28;19929;-60
2022/02/05 01:35:56;;;;;;;;;;;;;;;-1.41;84.53;97098.91;5063745;28;20022;-61
2022/02/05 01:57:04;;;;;;;;;;;;;;;-1.76;85.68;97119.19;5063420;28;19928;-60
2022/02/05 01:59:53;;;;;;;;;;;;;;;-1.91;86.11;97112.03;5064503;28;19928;-69
2022/02/05 02:05:09;;;;;;;;;;;;;;;-2.17;89.37;97127.00;5064312;28;19932;-69
2022/02/05 02:13:33;;;;;;;;;;;;;;;-2.12;87.43;97143.19;5063408;28;19929;-69
2022/02/05 02:16:18;;;;;;;;;;;;;;;-2.07;88.39;97145.88;5063133;28;20343;-69
2022/02/05 02:19:04;;;;;;;;;;;;;;;-2.01;88.06;97123.00;5062256;28;19966;-61
2022/02/05 02:26:48;;;;;;;;;;;;;;;-1.99;85.99;97125.44;5063587;28;19929;-61
2022/02/05 02:29:29;;;;;;;;;;;;;;;-2.09;86.24;97137.22;5064954;28;19928;-69
2022/02/05 02:31:57;;;;;;;;;;;;;;;-2.11;86.89;97127.75;5067351;28;19928;-69
2022/02/05 02:34:29;;;;;;;;;;;;;;;-2.10;86.34;97124.72;5067233;28;19933;-69
2022/02/05 02:37:00;;;;;;;;;;;;;;;-2.00;85.48;97121.91;5067019;28;20408;-69
2022/02/05 02:39:32;;;;;;;;;;;;;;;-1.96;85.87;97122.94;5067015;28;20146;-69
2022/02/05 02:42:07;;;;;;;;;;;;;;;-1.98;85.18;97111.59;5066838;28;19936;-61
2022/02/05 02:44:34;;;;;;;;;;;;;;;-1.91;85.33;97109.31;5065950;28;19935;-69
2022/02/05 02:47:00;;;;;;;;;;;;;;;-1.89;85.14;97109.84;5066584;28;19935;-69
2022/02/05 02:57:53;;;;;;;;;;;;;;;-1.89;83.93;97120.72;5066508;28;19928;-69
2022/02/05 03:00:20;;;;;;;;;;;;;;;-1.99;83.86;97131.66;5066414;28;19928;-69
2022/02/05 03:02:46;;;;;;;;;;;;;;;-1.95;83.73;97121.88;5066841;28;20011;-62
2022/02/05 03:05:13;;;;;;;;;;;;;;;-2.09;84.52;97122.84;5067741;28;19951;-69
2022/02/05 03:07:40;;;;;;;;;;;;;;;-2.19;85.50;97121.03;5065368;28;19982;-69
2022/02/05 03:10:06;;;;;;;;;;;;;;;-2.23;85.67;97119.97;5065104;28;20359;-68
2022/02/05 03:12:36;;;;;;;;;;;;;;;-2.27;85.77;97118.94;5064993;28;19928;-69
2022/02/05 03:15:04;;;;;;;;;;;;;;;-2.20;84.69;97130.28;5066493;28;19933;-63
2022/02/05 03:18:08;;;;;;;;;;;;;;;-2.27;85.41;97124.38;5066280;28;19928;-68
2022/02/05 03:20:23;;;;;;;;;;;;;;;-2.17;85.09;97128.88;5062636;28;19935;-67
2022/02/05 03:22:50;;;;;;;;;;;;;;;-2.17;84.29;97131.59;5064530;28;19938;-68
2022/02/05 03:25:17;;;;;;;;;;;;;;;-2.24;84.86;97150.94;5066169;28;19928;-61
2022/02/05 03:27:43;;;;;;;;;;;;;;;-2.26;84.47;97139.53;5066326;28;19928;-62
2022/02/05 03:30:10;;;;;;;;;;;;;;;-2.30;85.45;97145.84;5066662;28;20202;-69
2022/02/05 03:32:36;;;;;;;;;;;;;;;-2.32;86.21;97148.00;5064631;28;19928;-62
2022/02/05 03:35:03;;;;;;;;;;;;;;;-2.29;87.36;97142.84;5064219;28;19928;-68
2022/02/05 03:37:30;;;;;;;;;;;;;;;-2.54;87.76;97145.78;5065913;28;19929;-69
2022/02/05 03:39:57;;;;;;;;;;;;;;;-2.54;88.56;97137.66;5065450;28;19935;-62
2022/02/05 03:42:23;;;;;;;;;;;;;;;-2.48;88.57;97141.94;5064253;28;20411;-69
2022/02/05 03:44:50;;;;;;;;;;;;;;;-2.43;88.61;97131.03;5065725;28;19934;-69
2022/02/05 03:47:16;;;;;;;;;;;;;;;-2.44;88.55;97139.47;5063837;28;20383;-61
2022/02/05 03:49:43;;;;;;;;;;;;;;;-2.42;87.76;97138.06;5065778;28;19935;-69
2022/02/05 03:52:10;;;;;;;;;;;;;;;-2.62;86.87;97142.88;5065790;28;19928;-70
2022/02/05 03:54:36;;;;;;;;;;;;;;;-2.49;87.32;97137.63;5065447;28;19935;-61
2022/02/05 03:57:03;;;;;;;;;;;;;;;-2.47;86.93;97135.44;5065412;28;19940;-61
2022/02/05 03:59:29;;;;;;;;;;;;;;;-2.47;86.98;97140.84;5065345;28;19928;-61
2022/02/05 04:01:56;;;;;;;;;;;;;;;-2.44;86.51;97144.88;5063715;28;19928;-61
2022/02/05 04:04:24;;;;;;;;;;;;;;;-2.51;86.40;97134.38;5064344;28;19955;-69
2022/02/05 04:06:50;;;;;;;;;;;;;;;-2.48;87.02;97141.94;5065410;28;19940;-61
2022/02/05 04:09:25;;;;;;;;;;;;;;;-2.46;87.11;97139.75;5065949;28;19924;-61
2022/02/05 04:11:59;;;;;;;;;;;;;;;-2.42;87.52;97131.84;5063749;28;19936;-63
2022/02/05 04:17:11;;;;;;;;;;;;;;;-2.45;86.20;97138.66;5064913;28;20271;-60
2022/02/05 04:19:38;;;;;;;;;;;;;;;-2.43;86.57;97141.88;5064912;28;19929;-61
2022/02/05 04:22:05;;;;;;;;;;;;;;;-2.42;86.21;97137.28;5063382;28;19928;-69
2022/02/05 04:24:31;;;;;;;;;;;;;;;-2.30;85.52;97135.81;5065110;28;19940;-61
2022/02/05 04:26:58;;;;;;;;;;;;;;;-2.31;84.62;97131.47;5065113;28;19928;-62
2022/02/05 04:29:25;;;;;;;;;;;;;;;-2.42;85.66;97127.22;5065097;28;19935;-61
2022/02/05 04:31:51;;;;;;;;;;;;;;;-2.37;84.30;97134.53;5063462;28;19935;-68
2022/02/05 04:34:18;;;;;;;;;;;;;;;-2.46;84.17;97137.03;5064750;28;20383;-68
2022/02/05 04:36:44;;;;;;;;;;;;;;;-2.53;84.58;97143.91;5064510;28;19928;-61
2022/02/05 04:39:15;;;;;;;;;;;;;;;-2.62;84.54;97148.28;5064784;28;19928;-61
2022/02/05 04:42:35;;;;;;;;;;;;;;;-2.71;85.90;97145.41;5064425;28;19929;-69
2022/02/05 04:48:01;;;;;;;;;;;;;;;-2.74;87.43;97148.69;5064387;28;19937;-61
2022/02/05 05:00:27;;;;;;;;;;;;;;;-2.83;88.63;97142.25;5064636;28;20350;-69
2022/02/05 05:06:04;;;;;;;;;;;;;;;-2.64;87.93;97129.59;5064963;28;19936;-61
2022/02/05 05:21:39;;;;;;;;;;;;;;;-2.60;85.11;97124.41;5063943;28;19941;-68
2022/02/05 05:24:06;;;;;;;;;;;;;;;-2.63;85.32;97128.53;5064301;28;20342;-69
2022/02/05 05:26:37;;;;;;;;;;;;;;;-2.55;84.84;97144.19;5062369;28;19940;-62
2022/02/05 05:29:06;;;;;;;;;;;;;;;-2.70;85.36;97141.56;5063578;28;20390;-60
2022/02/05 05:31:33;;;;;;;;;;;;;;;-2.65;85.79;97144.25;5063918;28;19933;-63
2022/02/05 05:33:59;;;;;;;;;;;;;;;-2.70;86.07;97138.88;5063849;28;19928;-59
2022/02/05 05:36:26;;;;;;;;;;;;;;;-2.63;86.89;97131.22;5063566;28;19929;-60
2022/02/05 05:38:58;;;;;;;;;;;;;;;-2.64;86.33;97135.00;5064498;28;19933;-69
2022/02/05 05:41:25;;;;;;;;;;;;;;;-2.64;85.99;97135.00;5063706;28;19969;-62
2022/02/05 05:46:32;;;;;;;;;;;;;;;-2.56;85.04;97137.13;5063425;28;19968;-61
2022/02/05 05:51:46;;;;;;;;;;;;;;;-2.51;85.29;97145.22;5063634;28;20038;-70
2022/02/05 05:54:13;;;;;;;;;;;;;;;-2.50;85.24;97148.75;5062142;28;19933;-61
2022/02/05 05:56:41;;;;;;;;;;;;;;;-2.47;85.75;97151.69;5063499;28;19928;-62
2022/02/05 05:59:08;;;;;;;;;;;;;;;-2.44;85.67;97134.84;5063747;28;19929;-64
2022/02/05 06:01:37;;;;;;;;;;;;;;;-2.30;85.33;97152.06;5063898;28;19928;-60
2022/02/05 06:04:04;;;;;;;;;;;;;;;-2.23;84.98;97144.41;5066550;28;19932;-62
2022/02/05 06:06:30;;;;;;;;;;;;;;;-2.19;83.92;97142.75;5067490;28;20043;-69
2022/02/05 06:08:57;;;;;;;;;;;;;;;-2.14;84.24;97142.69;5067738;28;20450;-72
2022/02/05 06:11:26;;;;;;;;;;;;;;;-1.97;83.82;97156.63;5065827;28;19933;-60
2022/02/05 06:13:54;;;;;;;;;;;;;;;-2.07;84.75;97154.00;5067675;28;19928;-70
2022/02/05 06:16:27;;;;;;;;;;;;;;;-1.87;84.52;97151.09;5065785;28;19928;-61
2022/02/05 06:18:54;;;;;;;;;;;;;;;-1.70;83.35;97161.47;5067154;28;19940;-63
2022/02/05 06:21:21;;;;;;;;;;;;;;;-1.47;82.04;97157.13;5067012;28;19932;-60
2022/02/05 06:23:47;;;;;;;;;;;;;;;-1.33;81.77;97149.88;5065864;28;19928;-70
2022/02/05 06:26:14;;;;;;;;;;;;;;;-1.26;81.39;97153.03;5067469;28;20344;-61
2022/02/05 06:28:40;;;;;;;;;;;;;;;-1.15;79.07;97151.78;5067366;28;20406;-71
2022/02/05 06:31:07;;;;;;;;;;;;;;;-0.96;78.08;97145.28;5065428;28;19935;-60
2022/02/05 06:33:34;;;;;;;;;;;;;;;-1.06;79.23;97144.63;5053558;28;19944;-64
2022/02/05 06:36:00;;;;;;;;;;;;;;;-0.85;79.39;97137.75;5066347;28;19929;-66
2022/02/05 06:38:27;;;;;;;;;;;;;;;-0.62;79.35;97134.16;5061710;28;19928;-67
2022/02/05 06:40:53;;;;;;;;;;;;;;;-0.39;79.02;97144.09;5055180;28;20027;-67
2022/02/05 06:43:20;;;;;;;;;;;;;;;-0.25;77.39;97142.19;5057125;28;19928;-65
2022/02/05 06:45:47;;;;;;;;;;;;;;;-0.03;76.90;97140.44;5054887;28;19929;-70
2022/02/05 06:48:14;;;;;;;;;;;;;;;0.10;76.51;97141.56;5055585;28;19932;-62
2022/02/05 06:50:41;;;;;;;;;;;;;;;0.37;75.34;97141.59;5059484;28;20394;-65
2022/02/05 06:53:08;;;;;;;;;;;;;;;0.23;75.03;97135.34;5054983;28;19929;-65
2022/02/05 06:55:34;;;;;;;;;;;;;;;0.57;74.85;97129.47;5057218;28;19975;-67
2022/02/05 06:58:01;;;;;;;;;;;;;;;0.78;74.77;97147.00;5055488;28;19951;-60
2022/02/05 07:00:27;;;;;;;;;;;;;;;1.08;73.19;97141.69;5054055;28;19936;-61
2022/02/05 07:02:54;;;;;;;;;;;;;;;1.32;73.09;97128.59;5052439;28;20432;-62
2022/02/05 07:05:21;;;;;;;;;;;;;;;1.61;72.55;97122.69;5059890;28;20473;-65
2022/02/05 07:07:47;;;;;;;;;;;;;;;1.74;70.08;97121.00;5056642;28;19929;-62
2022/02/05 07:10:14;;;;;;;;;;;;;;;2.00;69.54;97119.22;5049321;28;19940;-66
2022/02/05 07:13:17;;;;;;;;;;;;;;;2.25;68.19;97115.81;5065055;28;19928;-67
2022/02/05 07:15:38;;;;;;;;;;;;;;;2.57;66.84;97118.19;5050701;28;19966;-66
2022/02/05 07:20:54;;;;;;;;;;;;;;;3.24;63.98;97116.66;5052589;28;19929;-67
2022/02/05 07:31:23;;;;;;;;;;;;;;;3.59;61.13;97090.91;5053758;28;19932;-62
2022/02/05 07:33:50;;;;;;;;;;;;;;;4.07;60.03;97090.63;5056471;28;19924;-69
2022/02/05 07:36:17;;;;;;;;;;;;;;;4.36;58.51;97094.22;5054042;28;19929;-71
2022/02/05 07:38:44;;;;;;;;;;;;;;;4.45;58.51;97092.25;5054162;28;19971;-67
2022/02/05 07:41:11;;;;;;;;;;;;;;;4.53;57.08;97110.63;5052610;28;19932;-67
2022/02/05 07:43:38;;;;;;;;;;;;;;;4.43;57.69;97105.50;5055187;28;19928;-66
2022/02/05 07:46:06;;;;;;;;;;;;;;;4.25;58.58;97109.44;5054933;28;19935;-65
2022/02/05 07:48:33;;;;;;;;;;;;;;;4.13;59.17;97106.56;5052434;28;19929;-72
2022/02/05 07:51:00;;;;;;;;;;;;;;;3.94;60.23;97108.88;5053266;28;19940;-66
2022/02/05 07:53:27;;;;;;;;;;;;;;;3.91;60.90;97109.53;5052484;28;19933;-65
2022/02/05 07:55:54;;;;;;;;;;;;;;;3.91;60.78;97120.50;5053187;28;19932;-63
2022/02/05 07:58:20;;;;;;;;;;;;;;;3.94;59.92;97121.78;5053753;28;19933;-63
2022/02/05 08:00:52;;;;;;;;;;;;;;;3.73;60.76;97113.41;5053277;28;20280;-63
2022/02/05 08:03:18;;;;;;;;;;;;;;;3.78;62.14;97109.75;5057823;28;20310;-70
2022/02/05 08:05:45;;;;;;;;;;;;;;;4.20;61.19;97109.63;5055270;28;19929;-61
2022/02/05 08:08:15;;;;;;;;;;;;;;;4.47;62.54;97106.44;5052201;28;19936;-62
2022/02/05 08:10:55;;;;;;;;;;;;;;;4.14;64.30;97102.69;5061137;28;19928;-70
2022/02/05 08:13:23;;;;;;;;;;;;;;;4.58;63.76;97101.41;5053900;28;19929;-69
2022/02/05 08:15:54;;;;;;;;;;;;;;;4.82;61.27;97107.06;5057595;28;19929;-67
2022/02/05 08:18:21;;;;;;;;;;;;;;;4.96;60.55;97113.13;5052257;28;19976;-63
2022/02/05 08:20:47;;;;;;;;;;;;;;;5.17;59.66;97085.69;5054997;28;19928;-62
2022/02/05 08:23:14;;;;;;;;;;;;;;;5.42;58.54;97087.44;5055354;28;19928;-61
2022/02/05 08:25:41;;;;;;;;;;;;;;;5.52;56.65;97095.25;5061744;28;19944;-69
2022/02/05 08:28:07;;;;;;;;;;;;;;;5.59;56.37;97087.28;5075484;28;20102;-70
2022/02/05 08:30:34;;;;;;;;;;;;;;;5.87;56.30;97083.63;5083242;28;19932;-63
2022/02/05 08:33:03;;;;;;;;;;;;;;;5.69;55.00;97086.88;5084415;28;20358;-63
2022/02/05 08:35:30;;;;;;;;;;;;;;;5.01;57.27;97099.19;5085048;28;19934;-69
2022/02/05 08:37:58;;;;;;;;;;;;;;;5.40;57.47;97084.22;5083279;28;19928;-62
2022/02/05 08:40:25;;;;;;;;;;;;;;;5.92;56.04;97079.88;5057878;28;19929;-64
2022/02/05 08:42:51;;;;;;;;;;;;;;;6.20;54.12;97080.84;5069858;28;20381;-68
2022/02/05 08:45:18;;;;;;;;;;;;;;;6.54;53.57;97080.44;5052611;28;20741;-67
2022/02/05 08:47:44;;;;;;;;;;;;;;;6.50;54.35;97084.19;5059084;28;19929;-65
2022/02/05 08:50:11;;;;;;;;;;;;;;;5.81;57.76;97078.66;5069976;28;19934;-65
2022/02/05 08:52:40;;;;;;;;;;;;;;;6.09;57.09;97074.16;5054667;28;20023;-71
2022/02/05 08:55:07;;;;;;;;;;;;;;;6.40;55.91;97074.47;5063073;28;19928;-74
2022/02/05 08:57:35;;;;;;;;;;;;;;;5.94;56.84;97083.09;5059457;28;19932;-74
2022/02/05 09:00:11;;;;;;;;;;;;;;;6.16;55.81;97079.94;5057709;28;20141;-72
2022/02/05 09:02:46;;;;;;;;;;;;;;;6.51;54.58;97081.13;5048681;28;19986;-67
2022/02/05 09:05:27;;;;;;;;;;;;;;;6.84;53.92;97084.56;5059133;28;19932;-69
2022/02/05 09:07:54;;;;;;;;;;;;;;;6.98;53.02;97086.94;5052649;28;19933;-71
2022/02/05 09:10:33;;;;;;;;;;;;;;;6.88;52.20;97082.72;5048118;28;19929;-68
2022/02/05 09:13:35;;;;;;;;;;;;;;;7.02;51.44;97079.59;5047765;28;19935;-66
2022/02/05 09:15:59;;;;;;;;;;;;;;;7.12;51.72;97085.44;5050186;28;19929;-64
2022/02/05 09:18:27;;;;;;;;;;;;;;;7.16;50.20;97069.81;5054302;28;19935;-63
2022/02/05 09:20:55;;;;;;;;;;;;;;;7.21;51.07;97077.84;5053669;28;19933;-63
2022/02/05 09:23:22;;;;;;;;;;;;;;;7.30;50.51;97070.22;5048097;28;20436;-63
2022/02/05 09:25:49;;;;;;;;;;;;;;;7.48;48.69;97060.53;5049990;28;20448;-69
2022/02/05 09:28:16;;;;;;;;;;;;;;;7.57;49.08;97069.47;5058561;28;19935;-66
2022/02/05 09:30:48;;;;;;;;;;;;;;;7.81;48.99;97067.78;5060803;28;20020;-69
2022/02/05 09:33:15;;;;;;;;;;;;;;;7.97;49.34;97054.81;5051338;28;19936;-68
2022/02/05 09:35:42;;;;;;;;;;;;;;;8.11;49.60;97066.25;5054708;28;20423;-68
2022/02/05 09:38:08;;;;;;;;;;;;;;;7.99;48.71;97053.31;5059645;28;20264;-69
2022/02/05 09:40:35;;;;;;;;;;;;;;;8.14;48.50;97060.78;5048304;28;19935;-69
2022/02/05 09:43:02;;;;;;;;;;;;;;;8.03;48.07;97064.44;5054239;28;19929;-69
2022/02/05 09:45:29;;;;;;;;;;;;;;;7.62;49.26;97060.94;5053679;28;19944;-66
2022/02/05 09:47:55;;;;;;;;;;;;;;;7.61;48.57;97051.09;5071194;28;19935;-64
2022/02/05 09:50:22;;;;;;;;;;;;;;;7.52;49.51;97047.66;5048661;28;19928;-66
2022/02/05 09:52:52;;;;;;;;;;;;;;;7.87;48.16;97049.81;5052206;28;19935;-60
2022/02/05 09:55:19;;;;;;;;;;;;;;;8.19;47.55;97046.75;5049967;28;19928;-60
2022/02/05 09:57:45;;;;;;;;;;;;;;;8.34;47.82;97034.16;5060443;28;19935;-68
2022/02/05 10:00:16;;;;;;;;;;;;;;;8.53;47.17;97039.75;5047015;28;20287;-64
2022/02/05 10:02:43;;;;;;;;;;;;;;;8.70;47.63;97039.38;5048088;28;20319;-64
2022/02/05 10:05:16;;;;;;;;;;;;;;;8.83;46.40;97035.34;5052204;28;19928;-65
2022/02/05 10:07:52;;;;;;;;;;;;;;;9.06;45.96;97025.22;5061209;28;19932;-61
2022/02/05 10:10:18;;;;;;;;;;;;;;;8.97;43.09;97032.91;5050433;28;19933;-66
2022/02/05 10:13:04;;;;;;;;;;;;;;;9.23;42.71;97024.84;5053434;28;19934;-68
2022/02/05 10:15:32;;;;;;;;;;;;;;;9.44;43.53;97025.28;5050589;28;20409;-65
2022/02/05 10:18:01;;;;;;;;;;;;;;;9.45;44.65;97032.41;5057355;28;19928;-65
2022/02/05 10:20:27;;;;;;;;;;;;;;;9.65;44.74;97020.19;5055244;28;19971;-58
2022/02/05 10:22:54;;;;;;;;;;;;;;;9.68;44.79;97088.59;5065403;28;19933;-59
2022/02/05 10:25:28;;;;;;;;;;;;;;;9.83;43.72;97021.31;5055282;28;19928;-59
2022/02/05 10:27:54;;;;;;;;;;;;;;;9.78;44.50;97012.53;5053977;28;19936;-57
2022/02/05 10:30:24;;;;;;;;;;;;;;;9.94;44.45;97022.31;5054453;28;19929;-59
2022/02/05 10:32:58;;;;;;;;;;;;;;;10.16;43.55;97010.50;5044983;28;19983;-56
2022/02/05 10:57:35;;;;;;;;;;;;;;;10.39;42.75;96978.09;4925260;29;19930;-62
2022/02/05 11:05:40;;;;;;;;;;;;;;;10.63;41.08;96974.13;4983408;28;19930;-61
2022/02/05 11:08:07;;;;;;;;;;;;;;;10.72;40.92;96973.88;4985096;28;19929;-60
2022/02/05 11:18:59;;;;;;;;;;;;;;;11.05;40.91;96944.25;4986887;28;19941;-61
2022/02/05 11:21:45;;;;;;;;;;;;;;;11.20;40.55;96934.16;4998778;28;20137;-61
2022/02/05 11:24:13;;;;;;;;;;;;;;;11.33;40.33;96932.72;4987160;28;20048;-61
2022/02/05 11:26:40;;;;;;;;;;;;;;;11.61;40.12;96921.97;4985251;28;19936;-61
2022/02/05 11:29:06;;;;;;;;;;;;;;;11.81;40.88;96959.47;4987369;28;19937;-61
2022/02/05 11:31:39;;;;;;;;;;;;;;;11.94;41.03;96925.53;4986928;28;20412;-62
2022/02/05 11:34:29;;;;;;;;;;;;;;;12.20;39.77;96935.69;4986834;28;19930;-60
2022/02/05 11:36:56;;;;;;;;;;;;;;;11.96;40.07;96933.47;4987018;28;19930;-60
2022/02/05 11:39:22;;;;;;;;;;;;;;;12.01;39.60;96935.91;4986861;28;19952;-60
2022/02/05 11:41:50;;;;;;;;;;;;;;;11.83;39.83;96929.34;5000613;28;19936;-60
2022/02/05 11:44:16;;;;;;;;;;;;;;;11.49;40.77;96939.66;4983742;28;19936;-61
2022/02/05 11:47:01;;;;;;;;;;;;;;;11.86;40.55;96934.16;4986143;28;19937;-63
2022/02/05 11:49:47;;;;;;;;;;;;;;;11.91;40.43;96925.47;4985218;28;19936;-60
2022/02/05 11:52:33;;;;;;;;;;;;;;;12.04;40.69;96919.25;4985229;28;20319;-63
2022/02/05 11:55:00;;;;;;;;;;;;;;;12.07;40.04;96923.25;5000876;28;19930;-62
2022/02/05 11:57:42;;;;;;;;;;;;;;;12.14;39.20;96923.31;4986587;28;19941;-59
2022/02/05 12:00:12;;;;;;;;;;;;;;;12.19;39.89;96920.19;4986220;28;19929;-60
2022/02/05 12:03:00;;;;;;;;;;;;;;;12.29;40.18;96919.47;4984382;28;20121;-61
2022/02/05 12:05:33;;;;;;;;;;;;;;;12.34;40.57;96910.81;4985956;28;19930;-60
2022/02/05 12:08:06;;;;;;;;;;;;;;;12.32;40.47;96907.59;4984559;28;19938;-58
2022/02/05 12:10:35;;;;;;;;;;;;;;;12.51;40.05;96904.56;4985989;28;20418;-59
2022/02/05 12:13:19;;;;;;;;;;;;;;;12.46;40.79;96901.34;4986383;28;19930;-63
2022/02/05 12:16:06;;;;;;;;;;;;;;;12.51;41.06;96898.22;4984602;28;19945;-60
2022/02/05 12:18:53;;;;;;;;;;;;;;;12.64;41.25;96889.19;4985475;28;19936;-60
2022/02/05 12:21:27;;;;;;;;;;;;;;;12.39;41.07;96854.88;4985680;28;20400;-61
2022/02/05 12:26:25;;;;;;;;;;;;;;;12.65;40.48;96888.00;4985556;28;19930;-58
2022/02/05 12:28:54;;;;;;;;;;;;;;;12.44;40.57;96887.84;4985602;28;20381;-59
2022/02/05 12:31:21;;;;;;;;;;;;;;;12.51;41.09;96896.25;5000289;28;20019;-59
2022/02/05 12:33:54;;;;;;;;;;;;;;;12.20;41.47;96888.47;4984752;28;19936;-59
2022/02/05 12:36:39;;;;;;;;;;;;;;;12.03;41.90;96889.09;4985491;28;19930;-61
2022/02/05 12:39:11;;;;;;;;;;;;;;;12.04;42.01;96896.25;4985992;28;20356;-59
2022/02/05 12:41:44;;;;;;;;;;;;;;;12.12;42.47;96897.91;4985207;28;19933;-61
2022/02/05 12:44:10;;;;;;;;;;;;;;;12.25;42.49;96906.75;4986002;28;19929;-61
2022/02/05 12:46:46;;;;;;;;;;;;;;;12.29;41.84;96897.25;4985821;28;19936;-60
2022/02/05 12:49:21;;;;;;;;;;;;;;;12.34;41.63;96899.69;4985220;28;19937;-60
2022/02/05 12:51:52;;;;;;;;;;;;;;;12.49;41.66;96890.25;4985408;28;19953;-59
2022/02/05 12:54:23;;;;;;;;;;;;;;;12.60;40.94;96893.91;4984939;28;19929;-60
2022/02/05 12:56:51;;;;;;;;;;;;;;;12.60;41.30;96898.69;4985413;28;19929;-62
2022/02/05 12:59:25;;;;;;;;;;;;;;;12.63;40.80;96901.47;4985359;28;20013;-61
2022/02/05 13:01:51;;;;;;;;;;;;;;;12.69;40.70;96905.50;4985216;28;20354;-60
2022/02/05 13:04:19;;;;;;;;;;;;;;;12.72;40.25;96898.34;4999899;28;19929;-63
2022/02/05 13:06:58;;;;;;;;;;;;;;;12.76;40.65;96894.41;4985396;28;19929;-61
2022/02/05 13:09:27;;;;;;;;;;;;;;;12.70;40.82;96895.16;4985235;28;19930;-59
2022/02/05 13:12:04;;;;;;;;;;;;;;;12.80;41.09;96895.25;4984575;28;19930;-61
2022/02/05 13:14:48;;;;;;;;;;;;;;;12.81;40.77;96902.38;4984533;28;19936;-61
2022/02/05 13:17:29;;;;;;;;;;;;;;;12.90;40.74;96905.63;4984649;28;19931;-60
2022/02/05 13:36:23;;;;;;;;;;;;;;;12.57;43.09;96911.34;4984317;28;19930;-62
2022/02/05 13:41:39;;;;;;;;;;;;;;;12.56;43.58;96909.78;4984585;28;19937;-62
2022/02/05 13:44:11;;;;;;;;;;;;;;;12.66;43.23;96917.38;4983291;28;19951;-61
2022/02/05 13:46:41;;;;;;;;;;;;;;;12.58;43.44;96912.97;4983042;28;19987;-64
2022/02/05 13:49:11;;;;;;;;;;;;;;;12.57;43.29;96914.13;4982877;28;19930;-63
2022/02/05 13:51:38;;;;;;;;;;;;;;;12.56;43.43;96911.75;4984143;28;19930;-61
2022/02/05 13:54:05;;;;;;;;;;;;;;;12.60;43.47;96918.13;4984172;28;20000;-60
2022/02/05 13:56:32;;;;;;;;;;;;;;;12.60;43.39;96918.91;4984395;28;20510;-62
2022/02/05 13:58:59;;;;;;;;;;;;;;;12.64;43.60;96924.50;4984766;28;20660;-62
2022/02/05 14:01:35;;;;;;;;;;;;;;;12.57;43.22;96952.22;4983125;28;19930;-61
2022/02/05 14:04:25;;;;;;;;;;;;;;;12.41;43.16;96926.72;4984593;28;19930;-62
2022/02/05 14:06:55;;;;;;;;;;;;;;;12.39;43.46;96918.78;4984674;28;19936;-61
2022/02/05 14:09:23;;;;;;;;;;;;;;;12.41;42.94;96926.72;4958337;28;19933;-62
2022/02/05 14:11:50;;;;;;;;;;;;;;;12.44;42.74;96926.72;4982918;28;19929;-60
2022/02/05 14:14:25;;;;;;;;;;;;;;;12.42;43.37;96928.31;4984561;28;19937;-63
2022/02/05 14:16:51;;;;;;;;;;;;;;;12.20;43.63;96927.34;4984064;28;20668;-62
2022/02/05 14:19:23;;;;;;;;;;;;;;;12.17;44.10;96922.56;4983094;28;19956;-63
2022/02/05 14:21:52;;;;;;;;;;;;;;;12.26;43.74;96917.47;4984287;28;19930;-65
2022/02/05 14:24:23;;;;;;;;;;;;;;;12.38;42.49;96917.16;4984094;28;19936;-64
2022/02/05 14:27:03;;;;;;;;;;;;;;;12.40;43.02;96914.81;5002481;28;19930;-61
2022/02/05 14:29:38;;;;;;;;;;;;;;;12.26;43.66;96903.59;4987988;28;19940;-63
2022/02/05 14:32:20;;;;;;;;;;;;;;;12.23;43.68;96914.66;4988266;28;20314;-68
2022/02/05 14:40:44;;;;;;;;;;;;;;;12.32;43.36;96904.00;4987510;28;19930;-63
2022/02/05 14:43:13;;;;;;;;;;;;;;;12.29;43.46;96913.94;4987653;28;19930;-62
2022/02/05 14:45:40;;;;;;;;;;;;;;;12.20;44.41;96910.69;4987709;28;19973;-63
2022/02/05 14:48:06;;;;;;;;;;;;;;;12.16;44.59;96921.75;4986324;28;19945;-65
2022/02/05 14:50:33;;;;;;;;;;;;;;;12.17;44.32;96922.56;4987397;28;20480;-65
2022/02/05 14:53:00;;;;;;;;;;;;;;;12.18;44.07;96927.72;4986078;28;19936;-63
2022/02/05 14:55:27;;;;;;;;;;;;;;;12.13;44.05;96924.50;4987365;28;19976;-62
2022/02/05 14:57:54;;;;;;;;;;;;;;;11.69;44.80;96927.25;4987896;28;19937;-64
2022/02/05 15:00:20;;;;;;;;;;;;;;;11.69;45.93;96934.75;4987911;28;20045;-63
2022/02/05 15:02:49;;;;;;;;;;;;;;;11.46;47.65;96932.09;4987483;28;19930;-61
2022/02/05 15:05:16;;;;;;;;;;;;;;;11.40;47.45;96935.56;4985634;28;19937;-61
2022/02/05 15:07:44;;;;;;;;;;;;;;;11.23;47.56;96938.94;4987434;28;19936;-60
2022/02/05 15:10:15;;;;;;;;;;;;;;;10.93;48.17;96929.81;4985502;28;19930;-61
2022/02/05 15:12:42;;;;;;;;;;;;;;;10.73;49.50;96932.72;4987099;28;20140;-61
2022/02/05 15:15:50;;;;;;;;;;;;;;;10.65;49.49;96925.47;4987611;28;19929;-61
2022/02/05 15:18:03;;;;;;;;;;;;;;;10.65;49.53;96936.56;4986402;28;19929;-61
2022/02/05 15:20:30;;;;;;;;;;;;;;;10.63;49.60;96935.34;4985855;28;19929;-60
2022/02/05 15:22:59;;;;;;;;;;;;;;;10.46;50.18;96933.88;4986837;28;19930;-59
2022/02/05 15:25:25;;;;;;;;;;;;;;;10.31;50.98;96937.63;4985501;28;19930;-59
2022/02/05 15:27:52;;;;;;;;;;;;;;;10.23;51.30;96946.97;4985632;28;19929;-61
2022/02/05 15:30:18;;;;;;;;;;;;;;;10.06;52.24;96952.16;4987203;28;20436;-61
2022/02/05 15:32:45;;;;;;;;;;;;;;;9.67;53.71;96945.97;4987037;28;20424;-60
2022/02/05 15:35:12;;;;;;;;;;;;;;;9.40;54.65;96947.00;4985969;28;20312;-60
2022/02/05 15:37:41;;;;;;;;;;;;;;;9.17;55.18;96951.66;4984788;28;20028;-61
2022/02/05 15:43:28;;;;;;;;;;;;;;;8.94;55.87;96953.53;5001981;28;19930;-61
2022/02/05 15:43:41;;;;;;;;;;;;;;;8.69;56.43;96966.78;4986344;28;19936;-61
2022/02/05 15:46:08;;;;;;;;;;;;;;;8.46;56.36;96967.81;4986655;28;19930;-59
2022/02/05 15:48:35;;;;;;;;;;;;;;;8.30;56.69;96976.09;4986678;28;20016;-63
2022/02/05 15:51:02;;;;;;;;;;;;;;;7.90;58.04;96938.81;4985071;28;19930;-61
2022/02/05 15:53:35;;;;;;;;;;;;;;;8.04;58.85;96988.81;4986661;28;20101;-65
2022/02/05 15:56:04;;;;;;;;;;;;;;;7.56;59.42;96943.84;4986916;28;19930;-62
2022/02/05 15:58:40;;;;;;;;;;;;;;;7.62;59.74;97000.31;5001240;28;19936;-62
2022/02/05 16:01:08;;;;;;;;;;;;;;;7.56;60.40;96989.88;4986120;28;19980;-61
2022/02/05 16:03:35;;;;;;;;;;;;;;;7.44;60.90;96999.03;4986417;28;19930;-62
2022/02/05 16:06:01;;;;;;;;;;;;;;;7.31;61.83;96999.41;4986049;28;20472;-61
2022/02/05 16:08:28;;;;;;;;;;;;;;;7.34;60.83;97010.53;4986064;28;19937;-60
2022/02/05 16:10:54;;;;;;;;;;;;;;;7.27;60.81;97007.56;4986049;28;19967;-60
2022/02/05 16:13:21;;;;;;;;;;;;;;;7.16;62.84;97014.72;5000997;28;19929;-60
2022/02/05 16:15:47;;;;;;;;;;;;;;;7.06;62.29;97020.75;4986049;28;19930;-60